sensor_id;sensor_type;location;lat;lon;timestamp;P1;durP1;ratioP1;P2;durP2;ratioP2
10313;SDS011;5202;49.138;10.090;2022-07-26T00:00:02;1.75;;;1.20;;
10313;SDS011;5202;49.138;10.090;2022-07-26T00:02:35;1.85;;;1.30;;
10313;SDS011;5202;49.138;10.090;2022-07-26T00:05:04;2.13;;;1.30;;
10313;SDS011;5202;49.138;10.090;2022-07-26T00:07:33;3.58;;;1.40;;
10313;SDS011;5202;49.138;10.090;2022-07-26T00:10:02;2.30;;;1.13;;
10313;SDS011;5202;49.138;10.090;2022-07-26T00:12:32;1.33;;;1.20;;
10313;SDS011;5202;49.138;10.090;2022-07-26T00:15:01;1.60;;;1.33;;
10313;SDS011;5202;49.138;10.090;2022-07-26T00:17:31;2.67;;;1.30;;
10313;SDS011;5202;49.138;10.090;2022-07-26T00:20:00;2.85;;;1.27;;
10313;SDS011;5202;49.138;10.090;2022-07-26T00:22:29;1.33;;;1.20;;
10313;SDS011;5202;49.138;10.090;2022-07-26T00:25:07;1.85;;;1.30;;
10313;SDS011;5202;49.138;10.090;2022-07-26T00:27:36;1.33;;;1.10;;
10313;SDS011;5202;49.138;10.090;2022-07-26T00:30:05;1.33;;;1.20;;
10313;SDS011;5202;49.138;10.090;2022-07-26T00:32:36;1.45;;;1.35;;
10313;SDS011;5202;49.138;10.090;2022-07-26T00:35:06;1.75;;;1.17;;
10313;SDS011;5202;49.138;10.090;2022-07-26T00:37:35;2.03;;;1.20;;
10313;SDS011;5202;49.138;10.090;2022-07-26T00:40:04;1.30;;;1.20;;
10313;SDS011;5202;49.138;10.090;2022-07-26T00:42:34;1.42;;;1.25;;
10313;SDS011;5202;49.138;10.090;2022-07-26T00:45:02;2.15;;;1.17;;
10313;SDS011;5202;49.138;10.090;2022-07-26T00:47:33;3.03;;;1.30;;
10313;SDS011;5202;49.138;10.090;2022-07-26T00:50:02;2.70;;;1.30;;
10313;SDS011;5202;49.138;10.090;2022-07-26T00:52:34;2.58;;;1.27;;
10313;SDS011;5202;49.138;10.090;2022-07-26T00:55:03;1.40;;;1.00;;
10313;SDS011;5202;49.138;10.090;2022-07-26T00:57:32;1.30;;;1.10;;
10313;SDS011;5202;49.138;10.090;2022-07-26T01:00:02;2.60;;;1.30;;
10313;SDS011;5202;49.138;10.090;2022-07-26T01:02:32;2.53;;;1.50;;
10313;SDS011;5202;49.138;10.090;2022-07-26T01:05:00;1.25;;;1.15;;
10313;SDS011;5202;49.138;10.090;2022-07-26T01:07:30;1.17;;;1.08;;
10313;SDS011;5202;49.138;10.090;2022-07-26T01:09:58;2.22;;;1.15;;
10313;SDS011;5202;49.138;10.090;2022-07-26T01:12:28;1.70;;;1.30;;
10313;SDS011;5202;49.138;10.090;2022-07-26T01:14:56;1.80;;;1.10;;
10313;SDS011;5202;49.138;10.090;2022-07-26T01:17:24;1.40;;;1.30;;
10313;SDS011;5202;49.138;10.090;2022-07-26T01:19:53;3.55;;;1.33;;
10313;SDS011;5202;49.138;10.090;2022-07-26T01:22:22;1.98;;;1.20;;
10313;SDS011;5202;49.138;10.090;2022-07-26T01:24:51;2.08;;;1.38;;
10313;SDS011;5202;49.138;10.090;2022-07-26T01:27:19;2.45;;;1.35;;
10313;SDS011;5202;49.138;10.090;2022-07-26T01:29:47;1.27;;;1.10;;
10313;SDS011;5202;49.138;10.090;2022-07-26T01:32:17;2.00;;;1.30;;
10313;SDS011;5202;49.138;10.090;2022-07-26T01:34:45;1.60;;;1.40;;
10313;SDS011;5202;49.138;10.090;2022-07-26T01:37:14;2.90;;;1.50;;
10313;SDS011;5202;49.138;10.090;2022-07-26T01:39:43;1.75;;;1.35;;
10313;SDS011;5202;49.138;10.090;2022-07-26T01:42:12;2.75;;;1.20;;
10313;SDS011;5202;49.138;10.090;2022-07-26T01:44:40;3.15;;;1.67;;
10313;SDS011;5202;49.138;10.090;2022-07-26T01:47:08;2.42;;;1.20;;
10313;SDS011;5202;49.138;10.090;2022-07-26T01:49:37;1.63;;;1.33;;
10313;SDS011;5202;49.138;10.090;2022-07-26T01:52:05;2.67;;;1.30;;
10313;SDS011;5202;49.138;10.090;2022-07-26T01:54:33;1.33;;;1.23;;
10313;SDS011;5202;49.138;10.090;2022-07-26T01:57:03;2.15;;;1.20;;
10313;SDS011;5202;49.138;10.090;2022-07-26T01:59:31;1.60;;;1.50;;
10313;SDS011;5202;49.138;10.090;2022-07-26T02:01:59;1.25;;;1.15;;
10313;SDS011;5202;49.138;10.090;2022-07-26T02:04:28;1.40;;;1.30;;
10313;SDS011;5202;49.138;10.090;2022-07-26T02:07:13;1.25;;;1.15;;
10313;SDS011;5202;49.138;10.090;2022-07-26T02:09:42;1.95;;;1.38;;
10313;SDS011;5202;49.138;10.090;2022-07-26T02:12:13;1.63;;;1.45;;
10313;SDS011;5202;49.138;10.090;2022-07-26T02:14:42;1.63;;;1.50;;
10313;SDS011;5202;49.138;10.090;2022-07-26T02:17:10;4.57;;;1.75;;
10313;SDS011;5202;49.138;10.090;2022-07-26T02:19:39;2.42;;;1.30;;
10313;SDS011;5202;49.138;10.090;2022-07-26T02:22:07;3.58;;;1.55;;
10313;SDS011;5202;49.138;10.090;2022-07-26T02:24:35;2.63;;;1.77;;
10313;SDS011;5202;49.138;10.090;2022-07-26T02:27:04;2.10;;;1.80;;
10313;SDS011;5202;49.138;10.090;2022-07-26T02:29:33;2.30;;;1.60;;
10313;SDS011;5202;49.138;10.090;2022-07-26T02:32:02;1.70;;;1.55;;
10313;SDS011;5202;49.138;10.090;2022-07-26T02:34:31;2.95;;;1.73;;
10313;SDS011;5202;49.138;10.090;2022-07-26T02:37:00;1.42;;;1.30;;
10313;SDS011;5202;49.138;10.090;2022-07-26T02:39:28;4.00;;;1.58;;
10313;SDS011;5202;49.138;10.090;2022-07-26T02:41:57;4.10;;;1.80;;
10313;SDS011;5202;49.138;10.090;2022-07-26T02:44:27;2.08;;;1.85;;
10313;SDS011;5202;49.138;10.090;2022-07-26T02:46:58;2.28;;;1.55;;
10313;SDS011;5202;49.138;10.090;2022-07-26T02:49:26;3.78;;;1.80;;
10313;SDS011;5202;49.138;10.090;2022-07-26T02:51:54;2.78;;;1.70;;
10313;SDS011;5202;49.138;10.090;2022-07-26T02:54:22;2.33;;;1.80;;
10313;SDS011;5202;49.138;10.090;2022-07-26T02:56:51;2.20;;;1.63;;
10313;SDS011;5202;49.138;10.090;2022-07-26T02:59:19;2.95;;;1.65;;
10313;SDS011;5202;49.138;10.090;2022-07-26T03:01:47;1.75;;;1.45;;
10313;SDS011;5202;49.138;10.090;2022-07-26T03:04:17;2.20;;;1.60;;
10313;SDS011;5202;49.138;10.090;2022-07-26T03:06:45;2.25;;;1.77;;
10313;SDS011;5202;49.138;10.090;2022-07-26T03:09:14;4.38;;;1.98;;
10313;SDS011;5202;49.138;10.090;2022-07-26T03:11:42;2.50;;;1.70;;
10313;SDS011;5202;49.138;10.090;2022-07-26T03:14:11;2.45;;;1.70;;
10313;SDS011;5202;49.138;10.090;2022-07-26T03:16:39;2.08;;;1.80;;
10313;SDS011;5202;49.138;10.090;2022-07-26T03:19:07;2.00;;;1.80;;
10313;SDS011;5202;49.138;10.090;2022-07-26T03:21:37;2.30;;;1.90;;
10313;SDS011;5202;49.138;10.090;2022-07-26T03:24:05;2.33;;;1.65;;
10313;SDS011;5202;49.138;10.090;2022-07-26T03:26:34;1.90;;;1.50;;
10313;SDS011;5202;49.138;10.090;2022-07-26T03:29:02;3.50;;;1.88;;
10313;SDS011;5202;49.138;10.090;2022-07-26T03:31:33;1.67;;;1.58;;
10313;SDS011;5202;49.138;10.090;2022-07-26T03:34:02;3.17;;;1.70;;
10313;SDS011;5202;49.138;10.090;2022-07-26T03:36:31;2.03;;;1.85;;
10313;SDS011;5202;49.138;10.090;2022-07-26T03:39:00;1.80;;;1.50;;
10313;SDS011;5202;49.138;10.090;2022-07-26T03:41:29;3.53;;;1.55;;
10313;SDS011;5202;49.138;10.090;2022-07-26T03:43:57;2.53;;;1.90;;
10313;SDS011;5202;49.138;10.090;2022-07-26T03:46:26;2.33;;;1.85;;
10313;SDS011;5202;49.138;10.090;2022-07-26T03:48:54;3.58;;;1.90;;
10313;SDS011;5202;49.138;10.090;2022-07-26T03:51:23;1.90;;;1.70;;
10313;SDS011;5202;49.138;10.090;2022-07-26T03:53:51;3.97;;;1.75;;
10313;SDS011;5202;49.138;10.090;2022-07-26T03:56:21;3.60;;;1.63;;
10313;SDS011;5202;49.138;10.090;2022-07-26T03:58:57;1.90;;;1.80;;
10313;SDS011;5202;49.138;10.090;2022-07-26T04:01:29;6.20;;;1.70;;
10313;SDS011;5202;49.138;10.090;2022-07-26T04:04:08;3.53;;;1.73;;
10313;SDS011;5202;49.138;10.090;2022-07-26T04:06:48;2.85;;;1.70;;
10313;SDS011;5202;49.138;10.090;2022-07-26T04:09:16;1.90;;;1.60;;
10313;SDS011;5202;49.138;10.090;2022-07-26T04:11:46;3.58;;;2.20;;
10313;SDS011;5202;49.138;10.090;2022-07-26T04:14:15;2.95;;;2.20;;
10313;SDS011;5202;49.138;10.090;2022-07-26T04:16:43;3.00;;;1.70;;
10313;SDS011;5202;49.138;10.090;2022-07-26T04:19:12;1.70;;;1.60;;
10313;SDS011;5202;49.138;10.090;2022-07-26T04:21:40;2.28;;;2.00;;
10313;SDS011;5202;49.138;10.090;2022-07-26T04:24:09;2.65;;;1.95;;
10313;SDS011;5202;49.138;10.090;2022-07-26T04:26:37;4.68;;;2.03;;
10313;SDS011;5202;49.138;10.090;2022-07-26T04:29:07;2.05;;;1.75;;
10313;SDS011;5202;49.138;10.090;2022-07-26T04:31:37;2.28;;;1.83;;
10313;SDS011;5202;49.138;10.090;2022-07-26T04:34:05;2.22;;;1.95;;
10313;SDS011;5202;49.138;10.090;2022-07-26T04:36:34;2.00;;;1.80;;
10313;SDS011;5202;49.138;10.090;2022-07-26T04:39:02;1.88;;;1.73;;
10313;SDS011;5202;49.138;10.090;2022-07-26T04:41:30;6.35;;;1.90;;
10313;SDS011;5202;49.138;10.090;2022-07-26T04:43:59;1.95;;;1.50;;
10313;SDS011;5202;49.138;10.090;2022-07-26T04:46:28;3.80;;;1.63;;
10313;SDS011;5202;49.138;10.090;2022-07-26T04:48:57;3.15;;;1.60;;
10313;SDS011;5202;49.138;10.090;2022-07-26T04:51:25;2.17;;;1.90;;
10313;SDS011;5202;49.138;10.090;2022-07-26T04:53:53;1.92;;;1.40;;
10313;SDS011;5202;49.138;10.090;2022-07-26T04:56:22;2.97;;;1.70;;
10313;SDS011;5202;49.138;10.090;2022-07-26T04:58:50;1.80;;;1.48;;
10313;SDS011;5202;49.138;10.090;2022-07-26T05:01:19;2.15;;;1.92;;
10313;SDS011;5202;49.138;10.090;2022-07-26T05:03:49;4.10;;;1.90;;
10313;SDS011;5202;49.138;10.090;2022-07-26T05:06:17;2.97;;;1.60;;
10313;SDS011;5202;49.138;10.090;2022-07-26T05:08:45;2.38;;;1.75;;
10313;SDS011;5202;49.138;10.090;2022-07-26T05:11:14;2.28;;;1.67;;
10313;SDS011;5202;49.138;10.090;2022-07-26T05:13:42;2.05;;;1.88;;
10313;SDS011;5202;49.138;10.090;2022-07-26T05:16:10;1.73;;;1.60;;
10313;SDS011;5202;49.138;10.090;2022-07-26T05:18:39;3.03;;;1.92;;
10313;SDS011;5202;49.138;10.090;2022-07-26T05:21:15;5.47;;;1.95;;
10313;SDS011;5202;49.138;10.090;2022-07-26T05:23:45;3.30;;;1.75;;
10313;SDS011;5202;49.138;10.090;2022-07-26T05:26:14;4.35;;;1.90;;
10313;SDS011;5202;49.138;10.090;2022-07-26T05:28:42;2.13;;;1.80;;
10313;SDS011;5202;49.138;10.090;2022-07-26T05:31:11;1.85;;;1.33;;
10313;SDS011;5202;49.138;10.090;2022-07-26T05:33:39;2.28;;;2.00;;
10313;SDS011;5202;49.138;10.090;2022-07-26T05:36:07;2.33;;;2.00;;
10313;SDS011;5202;49.138;10.090;2022-07-26T05:38:37;3.33;;;1.80;;
10313;SDS011;5202;49.138;10.090;2022-07-26T05:41:06;2.75;;;2.55;;
10313;SDS011;5202;49.138;10.090;2022-07-26T05:43:34;2.42;;;2.15;;
10313;SDS011;5202;49.138;10.090;2022-07-26T05:46:07;4.55;;;1.80;;
10313;SDS011;5202;49.138;10.090;2022-07-26T05:48:37;2.90;;;1.95;;
10313;SDS011;5202;49.138;10.090;2022-07-26T05:51:06;2.38;;;1.70;;
10313;SDS011;5202;49.138;10.090;2022-07-26T05:53:35;3.13;;;1.85;;
10313;SDS011;5202;49.138;10.090;2022-07-26T05:56:06;1.85;;;1.70;;
10313;SDS011;5202;49.138;10.090;2022-07-26T05:58:35;3.20;;;1.90;;
10313;SDS011;5202;49.138;10.090;2022-07-26T06:01:03;2.10;;;1.52;;
10313;SDS011;5202;49.138;10.090;2022-07-26T06:03:32;2.20;;;1.60;;
10313;SDS011;5202;49.138;10.090;2022-07-26T06:06:08;2.22;;;1.60;;
10313;SDS011;5202;49.138;10.090;2022-07-26T06:08:38;3.15;;;1.75;;
10313;SDS011;5202;49.138;10.090;2022-07-26T06:11:06;1.70;;;1.60;;
10313;SDS011;5202;49.138;10.090;2022-07-26T06:13:35;1.90;;;1.70;;
10313;SDS011;5202;49.138;10.090;2022-07-26T06:16:04;2.08;;;1.85;;
10313;SDS011;5202;49.138;10.090;2022-07-26T06:18:32;4.22;;;1.50;;
10313;SDS011;5202;49.138;10.090;2022-07-26T06:21:01;3.60;;;1.73;;
10313;SDS011;5202;49.138;10.090;2022-07-26T06:23:30;2.38;;;2.00;;
10313;SDS011;5202;49.138;10.090;2022-07-26T06:26:01;2.78;;;1.55;;
10313;SDS011;5202;49.138;10.090;2022-07-26T06:28:30;2.20;;;1.98;;
10313;SDS011;5202;49.138;10.090;2022-07-26T06:30:59;2.25;;;1.65;;
10313;SDS011;5202;49.138;10.090;2022-07-26T06:33:27;2.45;;;1.70;;
10313;SDS011;5202;49.138;10.090;2022-07-26T06:35:55;2.63;;;1.75;;
10313;SDS011;5202;49.138;10.090;2022-07-26T06:38:24;2.40;;;1.70;;
10313;SDS011;5202;49.138;10.090;2022-07-26T06:40:52;3.65;;;1.60;;
10313;SDS011;5202;49.138;10.090;2022-07-26T06:43:22;2.75;;;1.88;;
10313;SDS011;5202;49.138;10.090;2022-07-26T06:45:50;2.00;;;1.80;;
10313;SDS011;5202;49.138;10.090;2022-07-26T06:48:18;2.80;;;1.80;;
10313;SDS011;5202;49.138;10.090;2022-07-26T06:50:47;2.28;;;1.67;;
10313;SDS011;5202;49.138;10.090;2022-07-26T06:53:15;1.70;;;1.60;;
10313;SDS011;5202;49.138;10.090;2022-07-26T06:55:43;6.03;;;1.80;;
10313;SDS011;5202;49.138;10.090;2022-07-26T06:58:12;5.50;;;2.10;;
10313;SDS011;5202;49.138;10.090;2022-07-26T07:00:41;2.40;;;1.90;;
10313;SDS011;5202;49.138;10.090;2022-07-26T07:03:09;3.15;;;1.88;;
10313;SDS011;5202;49.138;10.090;2022-07-26T07:05:38;2.10;;;1.90;;
10313;SDS011;5202;49.138;10.090;2022-07-26T07:08:07;1.70;;;1.60;;
10313;SDS011;5202;49.138;10.090;2022-07-26T07:10:37;2.35;;;1.75;;
10313;SDS011;5202;49.138;10.090;2022-07-26T07:13:06;2.10;;;1.88;;
10313;SDS011;5202;49.138;10.090;2022-07-26T07:15:34;2.25;;;1.75;;
10313;SDS011;5202;49.138;10.090;2022-07-26T07:18:04;5.03;;;1.80;;
10313;SDS011;5202;49.138;10.090;2022-07-26T07:20:32;2.05;;;1.70;;
10313;SDS011;5202;49.138;10.090;2022-07-26T07:23:02;2.30;;;1.70;;
10313;SDS011;5202;49.138;10.090;2022-07-26T07:25:30;1.85;;;1.73;;
10313;SDS011;5202;49.138;10.090;2022-07-26T07:27:59;2.28;;;1.90;;
10313;SDS011;5202;49.138;10.090;2022-07-26T07:30:27;4.45;;;2.10;;
10313;SDS011;5202;49.138;10.090;2022-07-26T07:32:56;3.45;;;2.08;;
10313;SDS011;5202;49.138;10.090;2022-07-26T07:35:25;2.67;;;1.90;;
10313;SDS011;5202;49.138;10.090;2022-07-26T07:37:57;5.57;;;1.88;;
10313;SDS011;5202;49.138;10.090;2022-07-26T07:40:27;2.65;;;2.00;;
10313;SDS011;5202;49.138;10.090;2022-07-26T07:42:56;3.33;;;1.98;;
10313;SDS011;5202;49.138;10.090;2022-07-26T07:45:26;2.08;;;1.88;;
10313;SDS011;5202;49.138;10.090;2022-07-26T07:47:54;3.88;;;2.25;;
10313;SDS011;5202;49.138;10.090;2022-07-26T07:50:22;2.10;;;1.73;;
10313;SDS011;5202;49.138;10.090;2022-07-26T07:52:55;4.38;;;2.20;;
10313;SDS011;5202;49.138;10.090;2022-07-26T07:55:27;2.97;;;2.25;;
10313;SDS011;5202;49.138;10.090;2022-07-26T07:58:09;2.17;;;1.70;;
10313;SDS011;5202;49.138;10.090;2022-07-26T08:00:39;2.17;;;1.95;;
10313;SDS011;5202;49.138;10.090;2022-07-26T08:03:08;5.13;;;2.17;;
10313;SDS011;5202;49.138;10.090;2022-07-26T08:05:37;1.95;;;1.70;;
10313;SDS011;5202;49.138;10.090;2022-07-26T08:08:07;3.22;;;1.83;;
10313;SDS011;5202;49.138;10.090;2022-07-26T08:10:35;1.85;;;1.67;;
10313;SDS011;5202;49.138;10.090;2022-07-26T08:13:17;2.83;;;2.00;;
10313;SDS011;5202;49.138;10.090;2022-07-26T08:15:47;3.13;;;1.80;;
10313;SDS011;5202;49.138;10.090;2022-07-26T08:18:16;1.92;;;1.70;;
10313;SDS011;5202;49.138;10.090;2022-07-26T08:20:48;2.72;;;1.60;;
10313;SDS011;5202;49.138;10.090;2022-07-26T08:23:19;1.85;;;1.58;;
10313;SDS011;5202;49.138;10.090;2022-07-26T08:25:48;3.33;;;1.90;;
10313;SDS011;5202;49.138;10.090;2022-07-26T08:28:31;6.18;;;2.10;;
10313;SDS011;5202;49.138;10.090;2022-07-26T08:31:13;1.92;;;1.55;;
10313;SDS011;5202;49.138;10.090;2022-07-26T08:33:42;2.53;;;1.63;;
10313;SDS011;5202;49.138;10.090;2022-07-26T08:36:12;5.55;;;1.60;;
10313;SDS011;5202;49.138;10.090;2022-07-26T08:38:43;2.42;;;1.60;;
10313;SDS011;5202;49.138;10.090;2022-07-26T08:41:13;1.63;;;1.38;;
10313;SDS011;5202;49.138;10.090;2022-07-26T08:43:43;4.18;;;1.70;;
10313;SDS011;5202;49.138;10.090;2022-07-26T08:46:19;2.22;;;1.40;;
10313;SDS011;5202;49.138;10.090;2022-07-26T08:48:52;3.20;;;1.50;;
10313;SDS011;5202;49.138;10.090;2022-07-26T08:51:21;3.63;;;1.65;;
10313;SDS011;5202;49.138;10.090;2022-07-26T08:53:53;2.95;;;1.55;;
10313;SDS011;5202;49.138;10.090;2022-07-26T08:56:32;3.75;;;1.50;;
10313;SDS011;5202;49.138;10.090;2022-07-26T08:59:02;1.55;;;1.42;;
10313;SDS011;5202;49.138;10.090;2022-07-26T09:01:33;3.15;;;1.30;;
10313;SDS011;5202;49.138;10.090;2022-07-26T09:04:16;1.92;;;1.60;;
10313;SDS011;5202;49.138;10.090;2022-07-26T09:06:59;2.42;;;1.40;;
10313;SDS011;5202;49.138;10.090;2022-07-26T09:09:33;2.85;;;1.60;;
10313;SDS011;5202;49.138;10.090;2022-07-26T09:12:13;3.28;;;1.35;;
10313;SDS011;5202;49.138;10.090;2022-07-26T09:14:45;3.13;;;1.30;;
10313;SDS011;5202;49.138;10.090;2022-07-26T09:17:14;1.27;;;1.17;;
10313;SDS011;5202;49.138;10.090;2022-07-26T09:19:45;3.50;;;1.42;;
10313;SDS011;5202;49.138;10.090;2022-07-26T09:22:30;1.77;;;1.27;;
10313;SDS011;5202;49.138;10.090;2022-07-26T09:25:00;2.28;;;1.23;;
10313;SDS011;5202;49.138;10.090;2022-07-26T09:27:33;4.22;;;1.50;;
10313;SDS011;5202;49.138;10.090;2022-07-26T09:30:06;1.33;;;1.20;;
10313;SDS011;5202;49.138;10.090;2022-07-26T09:32:36;2.47;;;1.55;;
10313;SDS011;5202;49.138;10.090;2022-07-26T09:35:09;2.08;;;1.40;;
10313;SDS011;5202;49.138;10.090;2022-07-26T09:38:01;1.90;;;1.35;;
10313;SDS011;5202;49.138;10.090;2022-07-26T09:40:41;2.72;;;1.20;;
10313;SDS011;5202;49.138;10.090;2022-07-26T09:43:16;5.78;;;1.80;;
10313;SDS011;5202;49.138;10.090;2022-07-26T09:46:01;4.47;;;1.48;;
10313;SDS011;5202;49.138;10.090;2022-07-26T09:48:31;2.20;;;1.38;;
10313;SDS011;5202;49.138;10.090;2022-07-26T09:51:36;4.32;;;1.45;;
10313;SDS011;5202;49.138;10.090;2022-07-26T09:54:09;3.88;;;1.50;;
10313;SDS011;5202;49.138;10.090;2022-07-26T09:56:45;2.40;;;1.48;;
10313;SDS011;5202;49.138;10.090;2022-07-26T09:59:16;2.08;;;1.23;;
10313;SDS011;5202;49.138;10.090;2022-07-26T10:01:48;2.83;;;1.30;;
10313;SDS011;5202;49.138;10.090;2022-07-26T10:04:18;1.42;;;1.23;;
10313;SDS011;5202;49.138;10.090;2022-07-26T10:06:47;2.35;;;1.27;;
10313;SDS011;5202;49.138;10.090;2022-07-26T10:09:16;1.60;;;1.10;;
10313;SDS011;5202;49.138;10.090;2022-07-26T10:11:48;1.05;;;0.95;;
10313;SDS011;5202;49.138;10.090;2022-07-26T10:14:36;1.30;;;1.20;;
10313;SDS011;5202;49.138;10.090;2022-07-26T10:29:24;1.85;;;1.23;;
10313;SDS011;5202;49.138;10.090;2022-07-26T10:34:42;3.05;;;1.23;;
10313;SDS011;5202;49.138;10.090;2022-07-26T10:37:19;1.75;;;1.20;;
10313;SDS011;5202;49.138;10.090;2022-07-26T10:42:45;2.17;;;1.23;;
10313;SDS011;5202;49.138;10.090;2022-07-26T10:45:21;5.93;;;1.63;;
10313;SDS011;5202;49.138;10.090;2022-07-26T10:48:09;1.45;;;1.00;;
10313;SDS011;5202;49.138;10.090;2022-07-26T10:50:43;1.35;;;1.05;;
10313;SDS011;5202;49.138;10.090;2022-07-26T10:53:18;2.03;;;1.20;;
10313;SDS011;5202;49.138;10.090;2022-07-26T10:55:50;3.72;;;1.30;;
10313;SDS011;5202;49.138;10.090;2022-07-26T10:58:20;3.50;;;1.30;;
10313;SDS011;5202;49.138;10.090;2022-07-26T11:00:55;3.42;;;1.40;;
10313;SDS011;5202;49.138;10.090;2022-07-26T11:03:34;2.10;;;1.33;;
10313;SDS011;5202;49.138;10.090;2022-07-26T11:06:11;1.83;;;1.33;;
10313;SDS011;5202;49.138;10.090;2022-07-26T11:08:41;1.30;;;1.00;;
10313;SDS011;5202;49.138;10.090;2022-07-26T11:11:24;1.55;;;1.30;;
10313;SDS011;5202;49.138;10.090;2022-07-26T11:14:02;2.15;;;1.30;;
10313;SDS011;5202;49.138;10.090;2022-07-26T11:16:39;2.95;;;1.25;;
10313;SDS011;5202;49.138;10.090;2022-07-26T11:19:13;1.52;;;1.20;;
10313;SDS011;5202;49.138;10.090;2022-07-26T11:21:43;1.30;;;1.02;;
10313;SDS011;5202;49.138;10.090;2022-07-26T11:24:13;1.30;;;1.20;;
10313;SDS011;5202;49.138;10.090;2022-07-26T11:26:41;3.13;;;1.25;;
10313;SDS011;5202;49.138;10.090;2022-07-26T11:29:12;3.60;;;1.20;;
10313;SDS011;5202;49.138;10.090;2022-07-26T11:31:45;5.35;;;1.20;;
10313;SDS011;5202;49.138;10.090;2022-07-26T11:34:25;1.20;;;1.10;;
10313;SDS011;5202;49.138;10.090;2022-07-26T11:36:57;1.30;;;1.20;;
10313;SDS011;5202;49.138;10.090;2022-07-26T11:39:27;2.50;;;1.05;;
10313;SDS011;5202;49.138;10.090;2022-07-26T11:41:59;2.55;;;1.20;;
10313;SDS011;5202;49.138;10.090;2022-07-26T11:44:30;1.10;;;1.00;;
10313;SDS011;5202;49.138;10.090;2022-07-26T11:47:01;1.95;;;1.23;;
10313;SDS011;5202;49.138;10.090;2022-07-26T11:49:39;2.70;;;1.45;;
10313;SDS011;5202;49.138;10.090;2022-07-26T11:52:28;2.45;;;1.45;;
10313;SDS011;5202;49.138;10.090;2022-07-26T11:54:57;1.45;;;1.13;;
10313;SDS011;5202;49.138;10.090;2022-07-26T11:57:27;5.25;;;1.20;;
10313;SDS011;5202;49.138;10.090;2022-07-26T11:59:57;2.15;;;1.20;;
10313;SDS011;5202;49.138;10.090;2022-07-26T12:02:38;1.30;;;1.15;;
10313;SDS011;5202;49.138;10.090;2022-07-26T12:05:13;5.65;;;1.30;;
10313;SDS011;5202;49.138;10.090;2022-07-26T12:07:51;1.15;;;1.05;;
10313;SDS011;5202;49.138;10.090;2022-07-26T12:10:22;2.10;;;0.90;;
10313;SDS011;5202;49.138;10.090;2022-07-26T12:13:04;1.17;;;1.08;;
10313;SDS011;5202;49.138;10.090;2022-07-26T12:18:25;2.45;;;1.20;;
10313;SDS011;5202;49.138;10.090;2022-07-26T12:20:57;2.10;;;1.40;;
10313;SDS011;5202;49.138;10.090;2022-07-26T12:23:40;1.50;;;1.08;;
10313;SDS011;5202;49.138;10.090;2022-07-26T12:28:56;1.70;;;1.00;;
10313;SDS011;5202;49.138;10.090;2022-07-26T12:31:45;1.20;;;1.10;;
10313;SDS011;5202;49.138;10.090;2022-07-26T12:34:28;1.55;;;0.98;;
10313;SDS011;5202;49.138;10.090;2022-07-26T12:37:06;3.55;;;1.20;;
10313;SDS011;5202;49.138;10.090;2022-07-26T12:39:40;1.38;;;1.02;;
10313;SDS011;5202;49.138;10.090;2022-07-26T12:42:25;1.52;;;0.90;;
10313;SDS011;5202;49.138;10.090;2022-07-26T12:45:00;2.55;;;1.10;;
10313;SDS011;5202;49.138;10.090;2022-07-26T12:47:29;2.17;;;1.23;;
10313;SDS011;5202;49.138;10.090;2022-07-26T12:49:59;1.08;;;0.95;;
10313;SDS011;5202;49.138;10.090;2022-07-26T12:52:29;1.73;;;1.10;;
10313;SDS011;5202;49.138;10.090;2022-07-26T12:54:59;1.42;;;0.95;;
10313;SDS011;5202;49.138;10.090;2022-07-26T12:57:30;3.53;;;0.98;;
10313;SDS011;5202;49.138;10.090;2022-07-26T13:00:03;1.83;;;0.90;;
10313;SDS011;5202;49.138;10.090;2022-07-26T13:02:33;1.00;;;0.90;;
10313;SDS011;5202;49.138;10.090;2022-07-26T13:05:05;0.80;;;0.70;;
10313;SDS011;5202;49.138;10.090;2022-07-26T13:07:35;1.20;;;0.75;;
10313;SDS011;5202;49.138;10.090;2022-07-26T13:10:04;1.17;;;0.80;;
10313;SDS011;5202;49.138;10.090;2022-07-26T13:12:54;2.20;;;0.90;;
10313;SDS011;5202;49.138;10.090;2022-07-26T13:15:22;0.80;;;0.80;;
10313;SDS011;5202;49.138;10.090;2022-07-26T13:18:03;1.13;;;0.90;;
10313;SDS011;5202;49.138;10.090;2022-07-26T13:20:34;1.58;;;1.00;;
10313;SDS011;5202;49.138;10.090;2022-07-26T13:23:04;1.75;;;0.80;;
10313;SDS011;5202;49.138;10.090;2022-07-26T13:25:39;1.17;;;0.90;;
10313;SDS011;5202;49.138;10.090;2022-07-26T13:28:08;1.35;;;0.80;;
10313;SDS011;5202;49.138;10.090;2022-07-26T13:30:36;0.77;;;0.73;;
10313;SDS011;5202;49.138;10.090;2022-07-26T13:33:08;1.77;;;0.82;;
10313;SDS011;5202;49.138;10.090;2022-07-26T13:35:38;0.70;;;0.70;;
10313;SDS011;5202;49.138;10.090;2022-07-26T13:38:08;1.42;;;0.90;;
10313;SDS011;5202;49.138;10.090;2022-07-26T13:40:36;0.80;;;0.80;;
10313;SDS011;5202;49.138;10.090;2022-07-26T13:43:04;1.05;;;0.80;;
10313;SDS011;5202;49.138;10.090;2022-07-26T13:45:33;1.00;;;0.90;;
10313;SDS011;5202;49.138;10.090;2022-07-26T13:48:02;1.45;;;1.00;;
10313;SDS011;5202;49.138;10.090;2022-07-26T13:50:30;0.93;;;0.90;;
10313;SDS011;5202;49.138;10.090;2022-07-26T13:53:00;0.90;;;0.90;;
10313;SDS011;5202;49.138;10.090;2022-07-26T13:55:31;2.50;;;1.05;;
10313;SDS011;5202;49.138;10.090;2022-07-26T13:58:00;1.20;;;1.10;;
10313;SDS011;5202;49.138;10.090;2022-07-26T14:00:35;2.03;;;0.88;;
10313;SDS011;5202;49.138;10.090;2022-07-26T14:03:04;0.98;;;0.90;;
10313;SDS011;5202;49.138;10.090;2022-07-26T14:05:36;1.20;;;1.02;;
10313;SDS011;5202;49.138;10.090;2022-07-26T14:08:06;2.47;;;0.90;;
10313;SDS011;5202;49.138;10.090;2022-07-26T14:10:34;1.85;;;1.00;;
10313;SDS011;5202;49.138;10.090;2022-07-26T14:13:05;0.98;;;0.93;;
10313;SDS011;5202;49.138;10.090;2022-07-26T14:15:34;2.58;;;0.80;;
10313;SDS011;5202;49.138;10.090;2022-07-26T14:18:03;1.23;;;0.90;;
10313;SDS011;5202;49.138;10.090;2022-07-26T14:20:31;1.02;;;0.60;;
10313;SDS011;5202;49.138;10.090;2022-07-26T14:23:00;2.42;;;1.00;;
10313;SDS011;5202;49.138;10.090;2022-07-26T14:25:34;1.48;;;0.80;;
10313;SDS011;5202;49.138;10.090;2022-07-26T14:28:02;2.25;;;1.10;;
10313;SDS011;5202;49.138;10.090;2022-07-26T14:30:31;3.03;;;1.30;;
10313;SDS011;5202;49.138;10.090;2022-07-26T14:33:00;3.92;;;1.00;;
10313;SDS011;5202;49.138;10.090;2022-07-26T14:35:30;1.33;;;1.00;;
10313;SDS011;5202;49.138;10.090;2022-07-26T14:37:58;2.13;;;0.90;;
10313;SDS011;5202;49.138;10.090;2022-07-26T14:40:26;3.90;;;1.00;;
10313;SDS011;5202;49.138;10.090;2022-07-26T14:42:56;0.85;;;0.85;;
10313;SDS011;5202;49.138;10.090;2022-07-26T14:45:24;0.70;;;0.70;;
10313;SDS011;5202;49.138;10.090;2022-07-26T14:47:54;1.25;;;0.82;;
10313;SDS011;5202;49.138;10.090;2022-07-26T14:50:22;0.77;;;0.73;;
10313;SDS011;5202;49.138;10.090;2022-07-26T14:52:51;1.00;;;0.80;;
10313;SDS011;5202;49.138;10.090;2022-07-26T14:55:20;0.75;;;0.65;;
10313;SDS011;5202;49.138;10.090;2022-07-26T14:57:51;1.63;;;0.82;;
10313;SDS011;5202;49.138;10.090;2022-07-26T15:00:20;1.13;;;0.90;;
10313;SDS011;5202;49.138;10.090;2022-07-26T15:02:49;1.88;;;1.08;;
10313;SDS011;5202;49.138;10.090;2022-07-26T15:05:17;1.17;;;1.08;;
10313;SDS011;5202;49.138;10.090;2022-07-26T15:07:46;2.75;;;1.10;;
10313;SDS011;5202;49.138;10.090;2022-07-26T15:10:14;0.80;;;0.80;;
10313;SDS011;5202;49.138;10.090;2022-07-26T15:12:42;1.05;;;0.98;;
10313;SDS011;5202;49.138;10.090;2022-07-26T15:15:11;2.88;;;1.17;;
10313;SDS011;5202;49.138;10.090;2022-07-26T15:17:40;3.80;;;1.08;;
10313;SDS011;5202;49.138;10.090;2022-07-26T15:20:09;1.55;;;0.73;;
10313;SDS011;5202;49.138;10.090;2022-07-26T15:22:37;1.52;;;0.90;;
10313;SDS011;5202;49.138;10.090;2022-07-26T15:25:06;1.90;;;0.90;;
10313;SDS011;5202;49.138;10.090;2022-07-26T15:27:35;1.10;;;0.85;;
10313;SDS011;5202;49.138;10.090;2022-07-26T15:30:03;1.10;;;1.00;;
10313;SDS011;5202;49.138;10.090;2022-07-26T15:32:41;1.10;;;1.00;;